createdAt,value
2023-02-22T00:00:53.893Z,16.42
2023-02-22T00:03:25.414Z,17.30
2023-02-22T00:05:54.626Z,15.73
2023-02-22T00:08:22.444Z,14.05
2023-02-22T00:10:51.417Z,16.33
2023-02-22T00:13:19.177Z,15.50
2023-02-22T00:15:45.548Z,14.90
2023-02-22T00:18:13.272Z,15.68
2023-02-22T00:20:40.062Z,14.10
2023-02-22T00:23:07.685Z,14.52
2023-02-22T00:25:34.305Z,14.20
2023-02-22T00:28:00.906Z,13.55
2023-02-22T00:30:28.864Z,13.55
2023-02-22T00:32:56.505Z,13.05
2023-02-22T00:35:24.517Z,13.45
2023-02-22T00:37:52.682Z,12.52
2023-02-22T00:40:20.274Z,13.48
2023-02-22T00:42:46.909Z,14.68
2023-02-22T00:45:16.018Z,13.88
2023-02-22T00:47:42.434Z,12.13
2023-02-22T00:50:10.046Z,12.50
2023-02-22T00:52:36.903Z,14.32
2023-02-22T00:55:03.754Z,12.07
2023-02-22T00:57:30.122Z,11.82
2023-02-22T00:59:56.580Z,12.80
2023-02-22T01:02:23.045Z,11.73
2023-02-22T01:04:49.428Z,12.93
2023-02-22T01:07:16.244Z,12.65
2023-02-22T01:09:44.249Z,13.60
2023-02-22T01:12:10.696Z,11.50
2023-02-22T01:14:40.087Z,10.88
2023-02-22T01:17:06.477Z,13.52
2023-02-22T01:19:32.927Z,12.20
2023-02-22T01:21:59.720Z,12.60
2023-02-22T01:24:26.566Z,13.70
2023-02-22T01:26:54.260Z,12.00
2023-02-22T01:29:21.191Z,13.88
2023-02-22T01:31:51.546Z,12.43
2023-02-22T01:34:18.642Z,12.38
2023-02-22T01:36:45.020Z,12.13
2023-02-22T01:39:11.483Z,11.80
2023-02-22T01:41:38.991Z,13.32
2023-02-22T01:46:31.672Z,10.98
2023-02-22T01:49:10.192Z,13.70
2023-02-22T01:51:38.907Z,12.23
2023-02-22T01:54:10.948Z,13.95
2023-02-22T01:56:42.388Z,13.63
2023-02-22T01:59:10.497Z,12.52
2023-02-22T02:01:42.932Z,11.43
2023-02-22T02:04:11.770Z,10.73
2023-02-22T02:06:38.687Z,11.32
2023-02-22T02:09:18.930Z,13.57
2023-02-22T02:11:45.776Z,13.52
2023-02-22T02:14:12.589Z,13.82
2023-02-22T02:16:41.607Z,14.43
2023-02-22T02:19:15.629Z,12.80
2023-02-22T02:21:49.769Z,14.48
2023-02-22T02:24:18.887Z,12.68
2023-02-22T02:26:54.387Z,11.43
2023-02-22T02:29:34.857Z,13.50
2023-02-22T02:32:20.161Z,12.35
2023-02-22T02:34:46.568Z,11.45
2023-02-22T02:37:27.517Z,11.32
2023-02-22T02:39:53.924Z,13.45
2023-02-22T02:42:23.385Z,14.02
2023-02-22T02:44:54.517Z,12.85
2023-02-22T02:47:23.325Z,12.40
2023-02-22T02:50:25.348Z,15.38
2023-02-22T02:52:53.847Z,14.43
2023-02-22T02:55:20.434Z,14.98
2023-02-22T02:57:46.812Z,13.15
2023-02-22T03:00:22.307Z,13.73
2023-02-22T03:02:56.472Z,12.38
2023-02-22T03:05:23.087Z,14.02
2023-02-22T03:07:52.645Z,15.43
2023-02-22T03:10:25.043Z,17.15
2023-02-22T03:13:05.807Z,12.13
2023-02-22T03:15:51.732Z,13.05
2023-02-22T03:18:22.895Z,14.50
2023-02-22T03:20:55.353Z,15.00
2023-02-22T03:23:28.734Z,15.10
2023-02-22T03:26:00.129Z,12.07
2023-02-22T03:28:29.796Z,14.43
2023-02-22T03:33:33.608Z,13.75
2023-02-22T03:36:04.260Z,15.38
2023-02-22T03:38:32.508Z,15.85
2023-02-22T03:41:01.097Z,16.55
2023-02-22T03:43:30.429Z,13.60
2023-02-22T03:46:00.648Z,14.88
2023-02-22T03:50:53.582Z,16.88
2023-02-22T03:53:23.215Z,18.88
2023-02-22T03:55:51.624Z,14.02
2023-02-22T03:58:20.889Z,12.95
2023-02-22T04:00:47.974Z,15.77
2023-02-22T04:03:14.796Z,13.27
2023-02-22T04:05:41.448Z,14.98
2023-02-22T04:08:07.952Z,16.90
2023-02-22T04:10:34.420Z,15.10
2023-02-22T04:13:01.154Z,15.70
2023-02-22T04:15:27.568Z,14.85
2023-02-22T04:18:00.840Z,14.68
2023-02-22T04:20:27.540Z,15.43
2023-02-22T04:23:01.184Z,14.93
2023-02-22T04:25:28.520Z,14.27
2023-02-22T04:27:55.618Z,18.33
2023-02-22T04:30:34.137Z,15.25
2023-02-22T04:33:02.272Z,14.55
2023-02-22T04:35:28.695Z,15.65
2023-02-22T04:37:55.152Z,17.33
2023-02-22T04:40:21.771Z,16.20
2023-02-22T04:42:48.217Z,17.52
2023-02-22T04:45:14.975Z,16.33
2023-02-22T04:47:41.468Z,16.45
2023-02-22T04:50:09.657Z,19.48
2023-02-22T04:52:36.062Z,15.02
2023-02-22T04:55:02.636Z,15.50
2023-02-22T04:57:29.160Z,15.13
2023-02-22T04:59:55.783Z,14.18
2023-02-22T05:02:23.370Z,16.90
2023-02-22T05:04:50.278Z,15.30
2023-02-22T05:07:17.634Z,13.82
2023-02-22T05:09:44.092Z,18.13
2023-02-22T05:12:10.611Z,21.25
2023-02-22T05:14:37.073Z,14.60
2023-02-22T05:17:03.921Z,17.95
2023-02-22T05:19:30.574Z,17.50
2023-02-22T05:21:56.975Z,15.63
2023-02-22T05:24:23.409Z,16.83
2023-02-22T05:26:51.262Z,16.70
2023-02-22T05:29:17.690Z,18.52
2023-02-22T05:31:44.259Z,17.67
2023-02-22T05:34:10.634Z,20.27
2023-02-22T05:36:37.153Z,17.17
2023-02-22T05:39:05.417Z,19.08
2023-02-22T05:41:32.068Z,18.38
2023-02-22T05:43:58.527Z,19.05
2023-02-22T05:46:25.232Z,19.48
2023-02-22T05:48:51.796Z,19.30
2023-02-22T05:51:19.627Z,17.23
2023-02-22T05:53:46.394Z,18.75
2023-02-22T05:56:12.797Z,19.92
2023-02-22T05:58:39.371Z,21.20
2023-02-22T06:01:05.761Z,20.05
2023-02-22T06:03:32.120Z,18.20
2023-02-22T06:05:58.478Z,20.20
2023-02-22T06:08:25.013Z,22.20
2023-02-22T06:10:51.427Z,19.65
2023-02-22T06:13:17.861Z,17.38
2023-02-22T06:15:44.331Z,23.00
2023-02-22T06:18:11.082Z,19.85
2023-02-22T06:20:37.553Z,20.98
2023-02-22T06:23:03.984Z,21.83
2023-02-22T06:25:33.458Z,22.83
2023-02-22T06:28:00.693Z,18.73
2023-02-22T06:30:27.900Z,20.83
2023-02-22T06:32:54.684Z,20.27
2023-02-22T06:35:21.486Z,18.83
2023-02-22T06:37:47.935Z,22.02
2023-02-22T06:40:14.767Z,21.92
2023-02-22T06:42:41.403Z,20.83
2023-02-22T06:45:08.523Z,19.05
2023-02-22T06:47:37.908Z,18.42
2023-02-22T06:50:04.430Z,23.02
2023-02-22T06:52:30.861Z,21.15
2023-02-22T06:54:57.244Z,20.63
2023-02-22T06:57:23.694Z,18.45
2023-02-22T06:59:50.069Z,18.85
2023-02-22T07:02:16.503Z,18.42
2023-02-22T07:04:43.648Z,18.63
2023-02-22T07:07:10.315Z,19.60
2023-02-22T07:09:36.762Z,17.30
2023-02-22T07:12:03.248Z,17.25
2023-02-22T07:14:29.674Z,17.45
2023-02-22T07:16:56.192Z,18.42
2023-02-22T07:19:22.578Z,19.95
2023-02-22T07:21:48.991Z,20.30
2023-02-22T07:24:15.334Z,19.75
2023-02-22T07:26:42.081Z,19.95
2023-02-22T07:29:08.675Z,19.30
2023-02-22T07:31:35.958Z,21.20
2023-02-22T07:34:02.414Z,19.10
2023-02-22T07:36:28.910Z,19.15
2023-02-22T07:38:55.276Z,19.08
2023-02-22T07:41:22.854Z,19.88
2023-02-22T07:46:15.525Z,19.33
2023-02-22T07:48:42.029Z,18.52
2023-02-22T07:51:09.816Z,20.02
2023-02-22T07:53:36.234Z,19.02
2023-02-22T07:56:03.573Z,17.80
2023-02-22T07:58:30.521Z,17.77
2023-02-22T08:00:57.013Z,20.15
2023-02-22T08:03:24.849Z,24.20
2023-02-22T08:05:52.750Z,20.85
2023-02-22T08:08:19.997Z,15.63
2023-02-22T08:10:47.113Z,16.40
2023-02-22T08:13:13.509Z,14.20
2023-02-22T08:15:41.178Z,13.52
2023-02-22T08:18:09.136Z,14.55
2023-02-22T08:20:36.605Z,12.80
2023-02-22T08:25:29.874Z,14.55
2023-02-22T08:28:01.317Z,10.75
2023-02-22T08:30:29.455Z,11.07
2023-02-22T08:32:56.527Z,10.25
2023-02-22T08:35:23.206Z,9.52
2023-02-22T08:37:51.118Z,9.57
2023-02-22T08:40:18.926Z,9.48
2023-02-22T08:42:45.640Z,9.55
2023-02-22T08:45:13.427Z,10.18
2023-02-22T08:47:40.139Z,9.20
2023-02-22T08:50:07.282Z,9.25
2023-02-22T08:55:02.025Z,9.75
2023-02-22T08:57:28.467Z,8.30
2023-02-22T08:59:54.865Z,8.40
2023-02-22T09:02:22.123Z,8.93
2023-02-22T09:04:49.115Z,8.77
2023-02-22T09:07:16.501Z,8.85
2023-02-22T09:09:43.710Z,9.02
2023-02-22T09:14:36.665Z,9.45
2023-02-22T09:17:04.725Z,9.43
2023-02-22T09:19:32.276Z,8.30
2023-02-22T09:21:59.912Z,8.27
2023-02-22T09:24:26.641Z,7.78
2023-02-22T09:26:55.806Z,8.93
2023-02-22T09:29:23.261Z,8.65
2023-02-22T09:31:50.750Z,8.43
2023-02-22T09:34:17.589Z,9.05
2023-02-22T09:36:44.059Z,7.70
2023-02-22T09:39:11.343Z,8.25
2023-02-22T09:41:50.358Z,8.27
2023-02-22T09:44:16.779Z,8.13
2023-02-22T09:46:46.092Z,7.85
2023-02-22T09:49:15.670Z,7.72
2023-02-22T09:51:45.579Z,7.57
2023-02-22T09:54:28.326Z,8.23
2023-02-22T09:56:57.554Z,8.27
2023-02-22T09:59:31.648Z,7.43
2023-02-22T10:02:19.778Z,7.22
2023-02-22T10:04:49.686Z,7.35
2023-02-22T10:07:16.046Z,8.48
2023-02-22T10:09:42.956Z,7.32
2023-02-22T10:12:22.951Z,7.47
2023-02-22T10:15:10.821Z,6.82
2023-02-22T10:17:55.875Z,7.28
2023-02-22T10:20:22.531Z,8.93
2023-02-22T10:23:09.177Z,7.03
2023-02-22T10:25:37.406Z,7.40
2023-02-22T10:28:09.985Z,8.00
2023-02-22T10:30:40.171Z,7.75
2023-02-22T10:33:12.359Z,7.50
2023-02-22T10:35:41.060Z,7.22
2023-02-22T10:38:16.685Z,6.50
2023-02-22T10:40:49.477Z,8.27
2023-02-22T10:43:15.932Z,7.78
2023-02-22T10:45:42.412Z,7.88
2023-02-22T10:48:14.461Z,8.23
2023-02-22T10:50:42.455Z,8.00
2023-02-22T10:53:10.393Z,8.52
2023-02-22T10:55:57.402Z,7.95
2023-02-22T10:58:24.546Z,7.95
2023-02-22T11:00:51.652Z,8.07
2023-02-22T11:03:19.858Z,8.35
2023-02-22T11:05:46.691Z,8.30
2023-02-22T11:08:19.179Z,9.20
2023-02-22T11:10:46.143Z,11.40
2023-02-22T11:13:35.841Z,9.77
2023-02-22T11:16:17.252Z,9.90
2023-02-22T11:18:43.980Z,10.07
2023-02-22T11:21:12.247Z,9.43
2023-02-22T11:23:39.957Z,9.75
2023-02-22T11:26:08.259Z,10.45
2023-02-22T11:28:35.180Z,12.27
2023-02-22T11:31:13.380Z,12.60
2023-02-22T11:33:39.918Z,13.02
2023-02-22T11:36:09.273Z,11.57
2023-02-22T11:38:37.064Z,14.57
2023-02-22T11:41:06.620Z,11.55
2023-02-22T11:43:33.317Z,11.93
2023-02-22T11:46:13.967Z,10.65
2023-02-22T11:48:55.976Z,11.27
2023-02-22T11:51:41.212Z,9.43
2023-02-22T11:54:10.538Z,10.73
2023-02-22T11:56:42.847Z,10.82
2023-02-22T11:59:27.796Z,11.10
2023-02-22T12:01:56.501Z,10.98
2023-02-22T12:04:28.893Z,10.02
2023-02-22T12:07:01.436Z,11.50
2023-02-22T12:09:34.706Z,9.70
2023-02-22T12:12:07.032Z,9.90
2023-02-22T12:14:53.754Z,10.63
2023-02-22T12:17:54.319Z,9.30
2023-02-22T12:20:29.295Z,10.95
2023-02-22T12:23:14.497Z,8.48
2023-02-22T12:25:58.539Z,9.63
2023-02-22T12:28:31.375Z,9.75
2023-02-22T12:31:16.839Z,10.20
2023-02-22T12:33:50.351Z,9.90
2023-02-22T12:36:19.224Z,10.57
2023-02-22T12:38:49.016Z,9.68
2023-02-22T12:41:27.020Z,9.48
2023-02-22T12:43:53.694Z,10.25
2023-02-22T12:46:20.244Z,9.48
2023-02-22T12:48:49.506Z,8.95
2023-02-22T12:51:41.927Z,11.65
2023-02-22T12:54:16.394Z,11.27
2023-02-22T12:56:53.118Z,13.13
2023-02-22T12:59:26.022Z,11.02
2023-02-22T13:01:56.700Z,11.90
2023-02-22T13:04:23.187Z,15.45
2023-02-22T13:06:53.981Z,11.98
2023-02-22T13:09:33.340Z,10.85
2023-02-22T13:12:14.087Z,10.48
2023-02-22T13:14:48.143Z,10.95
2023-02-22T13:17:23.828Z,10.48
2023-02-22T13:20:02.530Z,11.90
2023-02-22T13:22:38.817Z,10.38
2023-02-22T13:25:09.176Z,12.73
2023-02-22T13:27:42.059Z,11.88
2023-02-22T13:30:34.914Z,9.15
2023-02-22T13:33:01.276Z,10.40
2023-02-22T13:35:47.402Z,9.98
2023-02-22T13:38:33.464Z,12.25
2023-02-22T13:41:14.946Z,10.77
2023-02-22T13:44:00.008Z,9.43
2023-02-22T13:46:45.272Z,14.63
2023-02-22T13:49:41.286Z,10.73
2023-02-22T13:52:27.748Z,10.00
2023-02-22T13:55:16.102Z,10.32
2023-02-22T13:57:49.782Z,11.07
2023-02-22T14:00:16.300Z,10.88
2023-02-22T14:03:01.458Z,11.98
2023-02-22T14:05:49.715Z,10.40
2023-02-22T14:08:19.053Z,12.13
2023-02-22T14:10:45.681Z,10.23
2023-02-22T14:13:12.718Z,11.95
2023-02-22T14:15:58.078Z,12.00
2023-02-22T14:18:25.168Z,10.07
2023-02-22T14:21:20.956Z,10.48
2023-02-22T14:23:48.625Z,10.38
2023-02-22T14:26:21.197Z,9.38
2023-02-22T14:28:50.793Z,11.75
2023-02-22T14:31:37.074Z,9.63
2023-02-22T14:34:04.123Z,10.88
2023-02-22T14:36:30.609Z,10.23
2023-02-22T14:39:01.865Z,9.98
2023-02-22T14:41:29.947Z,11.85
2023-02-22T14:43:57.307Z,12.10
2023-02-22T14:48:51.783Z,11.77
2023-02-22T14:51:29.273Z,9.80
2023-02-22T14:53:59.345Z,11.55
2023-02-22T14:56:28.580Z,9.95
2023-02-22T14:59:13.595Z,14.23
2023-02-22T15:01:49.337Z,10.57
2023-02-22T15:04:26.670Z,12.48
2023-02-22T15:06:54.754Z,9.77
2023-02-22T15:09:28.415Z,9.60
2023-02-22T15:12:12.836Z,9.98
2023-02-22T15:14:40.984Z,10.27
2023-02-22T15:17:09.242Z,9.95
2023-02-22T15:19:39.896Z,9.68
2023-02-22T15:22:14.909Z,8.95
2023-02-22T15:24:41.349Z,9.82
2023-02-22T15:27:12.837Z,8.48
2023-02-22T15:29:40.801Z,11.10
2023-02-22T15:32:25.742Z,10.02
2023-02-22T15:34:52.187Z,9.50
2023-02-22T15:37:25.139Z,10.30
2023-02-22T15:39:59.130Z,8.48
2023-02-22T15:42:27.067Z,9.00
2023-02-22T15:44:58.330Z,9.90
2023-02-22T15:47:27.310Z,10.25
2023-02-22T15:50:33.262Z,10.32
2023-02-22T15:53:07.601Z,8.65
2023-02-22T15:55:38.322Z,8.90
2023-02-22T15:58:23.802Z,9.48
2023-02-22T16:01:05.408Z,9.10
2023-02-22T16:03:51.438Z,9.35
2023-02-22T16:06:35.956Z,8.40
2023-02-22T16:09:08.401Z,8.65
2023-02-22T16:11:38.482Z,9.43
2023-02-22T16:14:05.932Z,8.95
2023-02-22T16:19:17.530Z,7.60
2023-02-22T16:21:53.382Z,8.40
2023-02-22T16:24:30.781Z,8.07
2023-02-22T16:27:12.736Z,8.82
2023-02-22T16:29:39.518Z,8.27
2023-02-22T16:32:12.346Z,8.18
2023-02-22T16:34:39.011Z,8.25
2023-02-22T16:37:05.398Z,8.43
2023-02-22T16:39:32.750Z,7.80
2023-02-22T16:44:25.586Z,8.35
2023-02-22T16:46:56.172Z,9.40
2023-02-22T16:49:23.490Z,7.75
2023-02-22T16:54:21.002Z,9.25
2023-02-22T16:56:47.447Z,9.15
2023-02-22T16:59:15.125Z,9.82
2023-02-22T17:01:41.841Z,9.00
2023-02-22T17:04:28.707Z,8.50
2023-02-22T17:06:55.096Z,8.73
2023-02-22T17:09:21.578Z,8.07
2023-02-22T17:11:50.127Z,8.95
2023-02-22T17:14:17.688Z,8.35
2023-02-22T17:16:46.905Z,8.25
2023-02-22T17:19:18.082Z,8.55
2023-02-22T17:21:44.657Z,9.38
2023-02-22T17:24:15.701Z,8.20
2023-02-22T17:26:42.313Z,8.30
2023-02-22T17:29:09.036Z,7.95
2023-02-22T17:31:35.476Z,10.60
2023-02-22T17:34:03.240Z,8.68
2023-02-22T17:36:30.047Z,8.68
2023-02-22T17:38:56.588Z,9.57
2023-02-22T17:41:22.983Z,9.38
2023-02-22T17:43:50.592Z,9.73
2023-02-22T17:46:19.571Z,9.55
2023-02-22T17:48:48.175Z,9.60
2023-02-22T17:51:14.594Z,10.52
2023-02-22T17:53:40.989Z,10.68
2023-02-22T17:56:12.394Z,10.88
2023-02-22T17:58:39.522Z,11.90
2023-02-22T18:01:06.243Z,12.82
2023-02-22T18:03:33.078Z,10.60
2023-02-22T18:06:01.117Z,11.13
2023-02-22T18:08:28.216Z,11.25
2023-02-22T18:10:58.426Z,10.88
2023-02-22T18:13:26.329Z,12.00
2023-02-22T18:15:53.307Z,13.43
2023-02-22T18:18:19.840Z,11.55
2023-02-22T18:20:47.165Z,11.45
2023-02-22T18:25:40.368Z,16.52
2023-02-22T18:28:07.428Z,15.45
2023-02-22T18:30:41.013Z,14.85
2023-02-22T18:33:12.061Z,13.50
2023-02-22T18:35:39.148Z,13.20
2023-02-22T18:38:05.903Z,13.60
2023-02-22T18:40:32.315Z,13.80
2023-02-22T18:42:58.700Z,13.68
2023-02-22T18:45:27.644Z,14.30
2023-02-22T18:47:54.320Z,14.13
2023-02-22T18:50:20.744Z,12.82
2023-02-22T18:52:47.177Z,13.85
2023-02-22T18:55:17.822Z,13.43
2023-02-22T18:57:45.066Z,12.05
2023-02-22T19:00:12.852Z,14.25
2023-02-22T19:02:39.330Z,12.70
2023-02-22T19:05:06.578Z,13.52
2023-02-22T19:07:34.140Z,14.82
2023-02-22T19:10:02.423Z,13.15
2023-02-22T19:12:31.437Z,13.68
2023-02-22T19:14:58.351Z,14.57
2023-02-22T19:17:26.083Z,13.32
2023-02-22T19:19:52.581Z,13.55
2023-02-22T19:22:19.021Z,15.20
2023-02-22T19:24:45.491Z,12.70
2023-02-22T19:27:12.468Z,13.55
2023-02-22T19:29:41.858Z,14.82
2023-02-22T19:32:09.555Z,15.90
2023-02-22T19:34:37.068Z,17.23
2023-02-22T19:39:32.052Z,18.65
2023-02-22T19:41:59.079Z,19.00
2023-02-22T19:44:26.363Z,19.88
2023-02-22T19:46:55.287Z,19.20
2023-02-22T19:49:23.244Z,17.90
2023-02-22T19:51:49.928Z,18.25
2023-02-22T19:54:19.424Z,18.23
2023-02-22T19:56:50.742Z,18.35
2023-02-22T19:59:21.318Z,17.75
2023-02-22T20:01:47.694Z,17.90
2023-02-22T20:04:18.595Z,20.52
2023-02-22T20:06:45.694Z,16.83
2023-02-22T20:09:13.478Z,16.70
2023-02-22T20:11:39.971Z,16.23
2023-02-22T20:14:06.645Z,17.38
2023-02-22T20:16:33.846Z,19.45
2023-02-22T20:19:00.338Z,18.17
2023-02-22T20:21:34.047Z,16.65
2023-02-22T20:24:01.446Z,16.77
2023-02-22T20:28:54.195Z,16.40
2023-02-22T20:31:21.287Z,16.20
2023-02-22T20:33:48.724Z,16.70
2023-02-22T20:36:16.507Z,15.20
2023-02-22T20:38:43.264Z,15.90
2023-02-22T20:41:13.186Z,15.50
2023-02-22T20:43:39.641Z,14.85
2023-02-22T20:46:06.888Z,15.43
2023-02-22T20:48:34.098Z,14.70
2023-02-22T20:51:07.414Z,15.75
2023-02-22T20:53:35.290Z,13.55
2023-02-22T20:56:02.088Z,14.88
2023-02-22T20:58:29.250Z,15.27
2023-02-22T21:00:55.688Z,14.65
2023-02-22T21:03:22.121Z,14.35
2023-02-22T21:05:48.557Z,14.65
2023-02-22T21:08:17.940Z,14.15
2023-02-22T21:10:45.116Z,15.25
2023-02-22T21:13:11.698Z,15.27
2023-02-22T21:15:38.461Z,13.93
2023-02-22T21:18:05.053Z,14.77
2023-02-22T21:20:31.604Z,13.82
2023-02-22T21:22:58.004Z,15.18
2023-02-22T21:25:26.535Z,15.20
2023-02-22T21:27:52.940Z,14.02
2023-02-22T21:30:19.422Z,14.63
2023-02-22T21:32:49.556Z,14.73
2023-02-22T21:35:16.140Z,13.27
2023-02-22T21:37:43.727Z,14.82
2023-02-22T21:40:19.057Z,15.35
2023-02-22T21:42:49.217Z,14.15
2023-02-22T21:45:18.376Z,16.05
2023-02-22T21:47:47.937Z,12.80
2023-02-22T21:50:18.524Z,14.93
2023-02-22T21:52:46.977Z,13.10
2023-02-22T21:55:14.128Z,11.23
2023-02-22T21:57:40.681Z,13.15
2023-02-22T22:00:28.946Z,14.68
2023-02-22T22:02:59.191Z,14.32
2023-02-22T22:05:35.014Z,12.50
2023-02-22T22:08:01.725Z,13.93
2023-02-22T22:10:30.709Z,12.32
2023-02-22T22:12:58.185Z,12.63
2023-02-22T22:17:51.244Z,18.70
2023-02-22T22:20:18.033Z,15.32
2023-02-22T22:22:46.064Z,15.35
2023-02-22T22:25:13.402Z,16.08
2023-02-22T22:27:40.186Z,17.38
2023-02-22T22:30:07.908Z,15.73
2023-02-22T22:32:34.980Z,17.13
2023-02-22T22:35:01.764Z,15.30
2023-02-22T22:37:28.455Z,14.57
2023-02-22T22:39:55.371Z,15.77
2023-02-22T22:42:22.379Z,14.80
2023-02-22T22:44:50.476Z,14.95
2023-02-22T22:47:20.639Z,15.07
2023-02-22T22:49:47.732Z,13.75
2023-02-22T22:52:15.578Z,14.75
2023-02-22T22:54:43.256Z,21.50
2023-02-22T22:57:10.339Z,22.98
2023-02-22T22:59:36.785Z,25.90
2023-02-22T23:02:04.514Z,28.98
2023-02-22T23:04:32.035Z,30.73
2023-02-22T23:06:58.496Z,32.10
2023-02-22T23:09:29.651Z,28.05
2023-02-22T23:12:08.556Z,36.65
2023-02-22T23:14:44.101Z,36.63
2023-02-22T23:17:15.337Z,32.13
2023-02-22T23:19:44.553Z,37.00
2023-02-22T23:22:13.792Z,35.95
2023-02-22T23:24:40.683Z,38.65
2023-02-22T23:27:07.486Z,31.42
2023-02-22T23:29:36.478Z,38.85
2023-02-22T23:32:03.107Z,38.15
2023-02-22T23:34:29.649Z,36.05
2023-02-22T23:36:56.003Z,34.45
2023-02-22T23:39:24.029Z,35.92
2023-02-22T23:41:51.696Z,38.08
2023-02-22T23:44:18.413Z,37.20
2023-02-22T23:46:47.937Z,38.85
2023-02-22T23:49:17.376Z,31.73
2023-02-22T23:51:44.643Z,30.00
2023-02-22T23:54:14.455Z,27.52
2023-02-22T23:56:47.166Z,26.48
2023-02-22T23:59:14.305Z,24.65
